Time;durP1;ratioP1;P1;durP2;ratioP2;P2;SDS_P1;SDS_P2;PMS_P1;PMS_P2;Temp;Humidity;BMP_temperature;BMP_pressure;BME280_temperature;BME280_humidity;BME280_pressure;Samples;Min_cycle;Max_cycle;Signal;HPM_P1;HPM_P2
2024/04/24 00:02:02;;;;;;;;;;;;;;;8.89;nan;101183.38;5414146;26;20388;-89
2024/04/24 00:04:27;;;;;;;;;;;;;;;8.89;nan;101179.91;5403008;26;19932;-89
2024/04/24 00:06:53;;;;;;;;;;;;;;;8.87;nan;101173.97;5412142;26;19936;-89
2024/04/24 00:09:18;;;;;;;;;;;;;;;8.87;nan;101171.28;5406774;26;19961;-89
2024/04/24 00:11:43;;;;;;;;;;;;;;;8.85;nan;101170.72;5402336;26;19964;-89
2024/04/24 00:14:08;;;;;;;;;;;;;;;8.85;nan;101168.84;5400367;26;19929;-89
2024/04/24 00:16:35;;;;;;;;;;;;;;;8.83;nan;101168.25;5414959;26;19935;-89
2024/04/24 00:19:00;;;;;;;;;;;;;;;8.83;nan;101164.78;5416542;26;20591;-88
2024/04/24 00:21:25;;;;;;;;;;;;;;;8.82;nan;101155.94;5418218;26;19929;-89
2024/04/24 00:23:50;;;;;;;;;;;;;;;8.82;nan;101155.13;5405531;26;19954;-90
2024/04/24 00:26:16;;;;;;;;;;;;;;;8.82;nan;101150.59;5411590;26;19969;-90
2024/04/24 00:28:41;;;;;;;;;;;;;;;8.81;nan;101150.84;5407571;26;20002;-89
2024/04/24 00:31:06;;;;;;;;;;;;;;;8.78;nan;101147.53;5415188;26;19939;-89
2024/04/24 00:33:31;;;;;;;;;;;;;;;8.77;nan;101140.56;5409427;26;19929;-90
2024/04/24 00:35:56;;;;;;;;;;;;;;;8.75;nan;101140.00;5403848;26;19929;-90
2024/04/24 00:38:22;;;;;;;;;;;;;;;8.74;nan;101137.53;5418651;26;19933;-89
2024/04/24 00:40:47;;;;;;;;;;;;;;;8.74;nan;101134.88;5405777;26;19933;-90
2024/04/24 00:43:12;;;;;;;;;;;;;;;8.73;nan;101131.38;5416059;26;19929;-90
2024/04/24 00:45:37;;;;;;;;;;;;;;;8.72;nan;101131.63;5413862;26;19936;-89
2024/04/24 00:48:03;;;;;;;;;;;;;;;8.69;nan;101130.22;5414780;26;19929;-89
2024/04/24 00:50:29;;;;;;;;;;;;;;;8.69;nan;101126.72;5394173;26;19932;-89
2024/04/24 00:52:54;;;;;;;;;;;;;;;8.67;nan;101126.97;5402733;26;19929;-89
2024/04/24 00:55:19;;;;;;;;;;;;;;;8.63;nan;101117.78;5406805;26;19929;-87
2024/04/24 00:57:44;;;;;;;;;;;;;;;8.59;nan;101111.22;5410650;26;19936;-90
2024/04/24 01:00:10;;;;;;;;;;;;;;;8.56;nan;101109.00;5416402;26;19929;-89
2024/04/24 01:02:35;;;;;;;;;;;;;;;8.54;nan;101111.09;5408708;26;20344;-89
2024/04/24 01:05:00;;;;;;;;;;;;;;;8.53;nan;101108.66;5414662;26;20268;-89
2024/04/24 01:07:25;;;;;;;;;;;;;;;8.50;nan;101106.44;5414151;26;19937;-90
2024/04/24 01:09:50;;;;;;;;;;;;;;;8.46;nan;101100.75;5407668;26;19930;-90
2024/04/24 01:12:16;;;;;;;;;;;;;;;8.43;nan;101099.31;5411466;26;19936;-89
2024/04/24 01:14:41;;;;;;;;;;;;;;;8.43;nan;101098.50;5385691;26;20269;-89
2024/04/24 01:17:06;;;;;;;;;;;;;;;8.40;nan;101093.63;5404190;26;19929;-90
2024/04/24 01:19:41;;;;;;;;;;;;;;;8.37;nan;101086.88;5399511;26;19929;-89
2024/04/24 01:22:25;;;;;;;;;;;;;;;8.35;nan;101082.81;5408742;26;19935;-89
2024/04/24 01:24:53;;;;;;;;;;;;;;;8.32;nan;101081.38;5403914;26;19936;-90
2024/04/24 01:27:18;;;;;;;;;;;;;;;8.29;nan;101079.16;5405289;26;19929;-88
2024/04/24 01:29:44;;;;;;;;;;;;;;;8.29;nan;101084.50;5403293;26;19936;-89
2024/04/24 01:32:09;;;;;;;;;;;;;;;8.28;nan;101076.72;5406804;26;19933;-90
2024/04/24 01:34:34;;;;;;;;;;;;;;;8.28;nan;101074.03;5410144;26;19936;-88
2024/04/24 01:36:59;;;;;;;;;;;;;;;8.29;nan;101073.00;5410556;26;19937;-89
2024/04/24 01:39:25;;;;;;;;;;;;;;;8.30;nan;101069.28;5405429;26;19976;-90
2024/04/24 01:41:50;;;;;;;;;;;;;;;8.30;nan;101070.09;5412456;26;19929;-89
2024/04/24 01:44:15;;;;;;;;;;;;;;;8.29;nan;101068.47;5417249;26;20449;-89
2024/04/24 01:46:40;;;;;;;;;;;;;;;8.26;nan;101065.41;5412129;26;19929;-89
2024/04/24 01:49:05;;;;;;;;;;;;;;;8.27;nan;101059.06;5409197;26;19943;-89
2024/04/24 01:51:30;;;;;;;;;;;;;;;8.27;nan;101053.72;5410809;26;19983;-89
2024/04/24 01:53:56;;;;;;;;;;;;;;;8.27;nan;101056.41;5408419;26;19933;-91
2024/04/24 01:56:21;;;;;;;;;;;;;;;8.28;nan;101047.34;5413575;26;19936;-90
2024/04/24 01:58:46;;;;;;;;;;;;;;;8.28;nan;101055.34;5411619;26;19937;-89
2024/04/24 02:01:11;;;;;;;;;;;;;;;8.27;nan;101051.06;5413357;26;19929;-88
2024/04/24 02:03:36;;;;;;;;;;;;;;;8.26;nan;101044.91;5410994;26;20326;-89
2024/04/24 02:06:02;;;;;;;;;;;;;;;8.26;nan;101046.72;5397802;26;20331;-89
2024/04/24 02:08:27;;;;;;;;;;;;;;;8.24;nan;101043.47;5410329;26;19929;-89
2024/04/24 02:10:52;;;;;;;;;;;;;;;8.23;nan;101047.19;5413673;26;20265;-89
2024/04/24 02:13:17;;;;;;;;;;;;;;;8.20;nan;101037.78;5403050;26;20276;-89
2024/04/24 02:15:42;;;;;;;;;;;;;;;8.20;nan;101037.78;5411076;26;19965;-89
2024/04/24 02:18:07;;;;;;;;;;;;;;;8.21;nan;101035.91;5410803;26;19961;-88
2024/04/24 02:20:33;;;;;;;;;;;;;;;8.20;nan;101040.44;5410425;26;20349;-89
2024/04/24 02:23:01;;;;;;;;;;;;;;;8.21;nan;101033.25;5413088;26;20276;-89
2024/04/24 02:25:36;;;;;;;;;;;;;;;8.21;nan;101023.38;5416774;26;20449;-90
2024/04/24 02:28:02;;;;;;;;;;;;;;;8.23;nan;101025.81;5414134;26;20372;-89
2024/04/24 02:30:27;;;;;;;;;;;;;;;8.22;nan;101016.19;5412932;26;19936;-89
2024/04/24 02:32:52;;;;;;;;;;;;;;;8.21;nan;101015.38;5416966;26;19943;-89
2024/04/24 02:35:17;;;;;;;;;;;;;;;8.18;nan;101011.31;5412582;26;20372;-89
2024/04/24 02:37:43;;;;;;;;;;;;;;;8.14;nan;101015.47;5410668;26;19929;-89
2024/04/24 02:40:08;;;;;;;;;;;;;;;8.15;nan;101011.78;5414569;26;19940;-90
2024/04/24 02:42:34;;;;;;;;;;;;;;;8.16;nan;101012.59;5416430;26;19936;-87
2024/04/24 02:44:59;;;;;;;;;;;;;;;8.15;nan;101003.75;5415932;26;19952;-89
2024/04/24 02:47:24;;;;;;;;;;;;;;;8.16;nan;101012.59;5415763;26;19932;-89
2024/04/24 02:49:49;;;;;;;;;;;;;;;8.15;nan;101003.75;5407628;26;20732;-89
2024/04/24 02:52:15;;;;;;;;;;;;;;;8.16;nan;101005.38;5412102;26;19929;-89
2024/04/24 02:54:40;;;;;;;;;;;;;;;8.19;nan;101004.13;5413713;26;19936;-89
2024/04/24 02:57:05;;;;;;;;;;;;;;;8.20;nan;101003.06;5412267;26;19957;-89
2024/04/24 02:59:30;;;;;;;;;;;;;;;8.21;nan;100999.38;5412828;26;19936;-89
2024/04/24 03:01:56;;;;;;;;;;;;;;;8.23;nan;100996.47;5403887;26;19929;-89
2024/04/24 03:04:21;;;;;;;;;;;;;;;8.23;nan;100991.94;5416973;26;19940;-89
2024/04/24 03:06:46;;;;;;;;;;;;;;;8.23;nan;100994.63;5410236;26;19929;-89
2024/04/24 03:09:13;;;;;;;;;;;;;;;8.22;nan;100989.50;5408443;26;20220;-89
2024/04/24 03:11:38;;;;;;;;;;;;;;;8.22;nan;100986.84;5411211;26;19946;-88
2024/04/24 03:14:04;;;;;;;;;;;;;;;8.23;nan;100983.13;5405249;26;19936;-89
2024/04/24 03:16:29;;;;;;;;;;;;;;;8.21;nan;100975.34;5405487;26;19929;-89
2024/04/24 03:18:55;;;;;;;;;;;;;;;8.19;nan;100975.56;5407794;26;20293;-89
2024/04/24 03:21:20;;;;;;;;;;;;;;;8.18;nan;100976.63;5410581;26;19936;-89
2024/04/24 03:23:46;;;;;;;;;;;;;;;8.17;nan;100976.84;5411402;26;20175;-89
2024/04/24 03:26:11;;;;;;;;;;;;;;;8.13;nan;100968.47;5415726;26;19936;-89
2024/04/24 03:28:37;;;;;;;;;;;;;;;8.10;nan;100968.94;5410577;26;19936;-90
2024/04/24 03:31:02;;;;;;;;;;;;;;;8.11;nan;100973.22;5407572;26;19930;-88
2024/04/24 03:33:28;;;;;;;;;;;;;;;8.08;nan;100973.69;5413632;26;20379;-88
2024/04/24 03:35:53;;;;;;;;;;;;;;;8.09;nan;100964.63;5411440;26;20011;-89
2024/04/24 03:38:18;;;;;;;;;;;;;;;8.08;nan;100965.69;5415396;26;19999;-89
2024/04/24 03:40:43;;;;;;;;;;;;;;;8.07;nan;100960.53;5406534;26;19936;-88
2024/04/24 03:43:09;;;;;;;;;;;;;;;8.06;nan;100959.72;5416440;26;19941;-89
2024/04/24 03:45:35;;;;;;;;;;;;;;;8.07;nan;100960.53;5413462;26;19929;-89
2024/04/24 03:48:00;;;;;;;;;;;;;;;8.08;nan;100963.00;5409387;26;19937;-88
2024/04/24 03:50:25;;;;;;;;;;;;;;;8.09;nan;100961.97;5399982;26;19975;-89
2024/04/24 03:52:50;;;;;;;;;;;;;;;8.11;nan;100961.75;5410246;26;19936;-90
2024/04/24 03:55:15;;;;;;;;;;;;;;;8.11;nan;100954.56;5404183;26;19929;-89
2024/04/24 03:57:40;;;;;;;;;;;;;;;8.11;nan;100961.75;5406548;26;19940;-89
2024/04/24 04:00:06;;;;;;;;;;;;;;;8.11;nan;100951.88;5407013;26;20438;-89
2024/04/24 04:02:31;;;;;;;;;;;;;;;8.11;nan;100957.22;5398800;26;19929;-90
2024/04/24 04:04:56;;;;;;;;;;;;;;;8.09;nan;100948.63;5404323;26;19932;-89
2024/04/24 04:07:22;;;;;;;;;;;;;;;8.09;nan;100945.16;5412272;26;19961;-89
2024/04/24 04:09:47;;;;;;;;;;;;;;;8.09;nan;100945.16;5408607;26;19937;-89
2024/04/24 04:12:12;;;;;;;;;;;;;;;8.09;nan;100940.63;5406913;26;20548;-89
2024/04/24 04:14:37;;;;;;;;;;;;;;;8.10;nan;100944.91;5413429;26;19941;-89
2024/04/24 04:17:02;;;;;;;;;;;;;;;8.13;nan;100946.31;5415889;26;19937;-90
2024/04/24 04:19:27;;;;;;;;;;;;;;;8.12;nan;100945.50;5398655;26;19937;-90
2024/04/24 04:21:53;;;;;;;;;;;;;;;8.14;nan;100945.28;5398069;26;19937;-89
2024/04/24 04:24:18;;;;;;;;;;;;;;;8.15;nan;100953.06;5406444;26;19940;-89
2024/04/24 04:26:44;;;;;;;;;;;;;;;8.16;nan;100949.34;5395829;26;19982;-90
2024/04/24 04:29:09;;;;;;;;;;;;;;;8.16;nan;100948.53;5404940;26;19928;-90
2024/04/24 04:31:34;;;;;;;;;;;;;;;8.17;nan;100945.63;5409874;26;19929;-89
2024/04/24 04:33:59;;;;;;;;;;;;;;;8.18;nan;100944.59;5414991;26;19933;-90
2024/04/24 04:36:25;;;;;;;;;;;;;;;8.21;nan;100942.50;5413635;26;19935;-89
2024/04/24 04:38:50;;;;;;;;;;;;;;;8.23;nan;100948.41;5400235;26;19933;-89
2024/04/24 04:41:15;;;;;;;;;;;;;;;8.24;nan;100948.19;5417036;26;19939;-90
2024/04/24 04:43:41;;;;;;;;;;;;;;;8.25;nan;100951.66;5406264;26;19929;-89
2024/04/24 04:46:06;;;;;;;;;;;;;;;8.26;nan;100953.31;5399680;26;19941;-89
2024/04/24 04:48:31;;;;;;;;;;;;;;;8.27;nan;100950.44;5399539;26;19941;-89
2024/04/24 04:50:59;;;;;;;;;;;;;;;8.28;nan;100956.59;5404885;26;20335;-89
2024/04/24 04:53:24;;;;;;;;;;;;;;;8.29;nan;100956.34;5407957;26;19928;-89
2024/04/24 04:55:49;;;;;;;;;;;;;;;8.31;nan;100948.94;5408731;26;19929;-89
2024/04/24 04:58:14;;;;;;;;;;;;;;;8.34;nan;100953.03;5412170;26;20794;-89
2024/04/24 05:00:40;;;;;;;;;;;;;;;8.36;nan;100934.91;5398537;26;19937;-89
2024/04/24 05:03:05;;;;;;;;;;;;;;;8.40;nan;100944.09;5399019;26;19936;-89
2024/04/24 05:05:31;;;;;;;;;;;;;;;8.44;nan;100939.94;5405493;26;19934;-88
2024/04/24 05:07:56;;;;;;;;;;;;;;;8.48;nan;100941.09;5413944;26;20268;-89
2024/04/24 05:10:21;;;;;;;;;;;;;;;8.52;nan;100936.94;5395101;26;19937;-88
2024/04/24 05:12:46;;;;;;;;;;;;;;;8.58;nan;100941.34;5395914;26;19929;-90
2024/04/24 05:15:11;;;;;;;;;;;;;;;8.61;nan;100942.72;5414217;26;19928;-90
2024/04/24 05:17:37;;;;;;;;;;;;;;;8.64;nan;100931.63;5417496;26;20272;-89
2024/04/24 05:20:02;;;;;;;;;;;;;;;8.68;nan;100930.91;5413173;26;19929;-89
2024/04/24 05:22:33;;;;;;;;;;;;;;;8.74;nan;100937.19;5405374;26;20006;-89
2024/04/24 05:24:58;;;;;;;;;;;;;;;8.77;nan;100934.84;5417222;26;19935;-89
2024/04/24 05:30:08;;;;;;;;;;;;;;;8.83;nan;100919.78;5393135;26;19940;-90
2024/04/24 05:32:33;;;;;;;;;;;;;;;8.87;nan;100926.28;5404128;26;20365;-89
2024/04/24 05:34:58;;;;;;;;;;;;;;;8.92;nan;100917.56;5417485;26;19978;-89
2024/04/24 05:37:23;;;;;;;;;;;;;;;8.97;nan;100915.81;5417598;26;19936;-90
2024/04/24 05:39:49;;;;;;;;;;;;;;;9.03;nan;100908.72;5398695;26;19998;-90
2024/04/24 05:42:14;;;;;;;;;;;;;;;9.07;nan;100912.56;5411180;26;19941;-88
2024/04/24 05:44:40;;;;;;;;;;;;;;;9.12;nan;100907.31;5404253;26;20446;-90
2024/04/24 05:47:05;;;;;;;;;;;;;;;9.15;nan;100906.84;5399363;26;19930;-90
2024/04/24 05:49:30;;;;;;;;;;;;;;;9.20;nan;100901.63;5405362;26;19936;-90
2024/04/24 05:51:56;;;;;;;;;;;;;;;9.25;nan;100899.06;5398497;26;20400;-90
2024/04/24 05:54:21;;;;;;;;;;;;;;;9.31;nan;100897.28;5402213;26;19936;-90
2024/04/24 05:56:46;;;;;;;;;;;;;;;9.35;nan;100893.94;5404816;26;20378;-90
2024/04/24 05:59:11;;;;;;;;;;;;;;;9.40;nan;100887.88;5386632;26;19941;-90
2024/04/24 06:01:37;;;;;;;;;;;;;;;9.44;nan;100896.22;5395524;26;19940;-90
2024/04/24 06:04:02;;;;;;;;;;;;;;;9.46;nan;100892.25;5406232;26;19933;-90
2024/04/24 06:06:27;;;;;;;;;;;;;;;9.52;nan;100885.16;5400907;26;20376;-89
2024/04/24 06:08:52;;;;;;;;;;;;;;;9.57;nan;100887.94;5387517;26;19937;-89
2024/04/24 06:11:17;;;;;;;;;;;;;;;9.62;nan;100888.84;5392201;26;19929;-89
2024/04/24 06:13:43;;;;;;;;;;;;;;;9.66;nan;100897.19;5408124;26;19941;-90
2024/04/24 06:16:08;;;;;;;;;;;;;;;9.69;nan;100894.03;5407321;26;19929;-90
2024/04/24 06:18:33;;;;;;;;;;;;;;;9.73;nan;100889.03;5403794;26;19940;-89
2024/04/24 06:20:58;;;;;;;;;;;;;;;9.78;nan;100886.44;5390528;26;20361;-89
2024/04/24 06:23:23;;;;;;;;;;;;;;;9.80;nan;100885.16;5415287;26;19936;-89
2024/04/24 06:25:48;;;;;;;;;;;;;;;9.86;nan;100886.88;5416850;26;19997;-90
2024/04/24 06:28:14;;;;;;;;;;;;;;;9.90;nan;100882.69;5406549;26;19929;-89
2024/04/24 06:30:39;;;;;;;;;;;;;;;9.97;nan;100886.00;5407583;26;19933;-89
2024/04/24 06:33:04;;;;;;;;;;;;;;;10.07;nan;100890.75;5406659;26;19937;-88
2024/04/24 06:35:29;;;;;;;;;;;;;;;10.14;nan;100871.84;5410937;26;19944;-89
2024/04/24 06:37:54;;;;;;;;;;;;;;;10.23;nan;100878.44;5396713;26;20527;-89
2024/04/24 06:40:20;;;;;;;;;;;;;;;10.32;nan;100876.19;5389601;26;19936;-89
2024/04/24 06:42:45;;;;;;;;;;;;;;;10.39;nan;100877.63;5402954;26;19929;-88
2024/04/24 06:45:10;;;;;;;;;;;;;;;10.45;nan;100870.53;5404384;26;20373;-88
2024/04/24 06:47:35;;;;;;;;;;;;;;;10.49;nan;100883.16;5411882;26;19929;-89
2024/04/24 06:50:01;;;;;;;;;;;;;;;10.52;nan;100874.63;5403828;26;19936;-89
2024/04/24 06:52:26;;;;;;;;;;;;;;;10.63;nan;100870.25;5398183;26;19937;-89
2024/04/24 06:54:51;;;;;;;;;;;;;;;10.77;nan;100862.66;5395288;26;19929;-89
2024/04/24 06:57:17;;;;;;;;;;;;;;;10.90;nan;100871.19;5410048;26;19929;-88
2024/04/24 06:59:44;;;;;;;;;;;;;;;11.01;nan;100861.41;5404515;26;19929;-89
2024/04/24 07:02:09;;;;;;;;;;;;;;;11.15;nan;100865.38;5412776;26;19982;-88
2024/04/24 07:04:35;;;;;;;;;;;;;;;11.30;nan;100862.03;5399716;26;19929;-89
2024/04/24 07:07:00;;;;;;;;;;;;;;;11.38;nan;100855.44;5387345;26;20583;-89
2024/04/24 07:09:25;;;;;;;;;;;;;;;11.44;nan;100855.25;5398342;26;19936;-89
2024/04/24 07:11:51;;;;;;;;;;;;;;;11.51;nan;100847.00;5406307;26;19936;-89
2024/04/24 07:14:16;;;;;;;;;;;;;;;11.65;nan;100842.84;5395069;26;20009;-88
2024/04/24 07:16:41;;;;;;;;;;;;;;;11.79;nan;100844.09;5390345;26;19966;-89
2024/04/24 07:19:06;;;;;;;;;;;;;;;11.86;nan;100837.75;5402346;26;19940;-90
2024/04/24 07:21:31;;;;;;;;;;;;;;;11.95;nan;100828.97;5399335;26;20380;-89
2024/04/24 07:23:57;;;;;;;;;;;;;;;12.02;nan;100826.84;5405632;26;19929;-89
2024/04/24 07:26:22;;;;;;;;;;;;;;;12.16;nan;100826.44;5397527;26;20009;-89
2024/04/24 07:28:48;;;;;;;;;;;;;;;12.30;nan;100823.06;5400661;26;19936;-88
2024/04/24 07:31:14;;;;;;;;;;;;;;;12.44;nan;100825.31;5400138;26;19940;-87
2024/04/24 07:33:40;;;;;;;;;;;;;;;12.52;nan;100825.63;5408585;26;19930;-89
2024/04/24 07:36:05;;;;;;;;;;;;;;;12.61;nan;100823.28;5387864;26;19929;-89
2024/04/24 07:38:31;;;;;;;;;;;;;;;12.76;nan;100818.00;5398071;26;19943;-89
2024/04/24 07:40:56;;;;;;;;;;;;;;;12.94;nan;100814.88;5409688;26;20012;-88
2024/04/24 07:43:21;;;;;;;;;;;;;;;13.05;nan;100812.22;5413223;26;20030;-88
2024/04/24 07:45:46;;;;;;;;;;;;;;;13.16;nan;100805.81;5414787;26;19929;-89
2024/04/24 07:48:12;;;;;;;;;;;;;;;13.32;nan;100806.72;5390691;26;19953;-89
2024/04/24 07:50:37;;;;;;;;;;;;;;;13.39;nan;100799.97;5384020;26;20005;-91
2024/04/24 07:53:02;;;;;;;;;;;;;;;13.51;nan;100799.75;5385738;26;19929;-88
2024/04/24 07:55:27;;;;;;;;;;;;;;;13.70;nan;100800.88;5405019;26;19929;-89
2024/04/24 07:57:53;;;;;;;;;;;;;;;13.81;nan;100802.47;5403091;26;19929;-88
2024/04/24 08:00:18;;;;;;;;;;;;;;;13.79;nan;100795.75;5389682;26;19933;-87
2024/04/24 08:02:43;;;;;;;;;;;;;;;13.84;nan;100785.00;5384754;26;20377;-89
2024/04/24 08:05:08;;;;;;;;;;;;;;;13.89;nan;100788.50;5385057;26;19937;-88
2024/04/24 08:07:34;;;;;;;;;;;;;;;13.93;nan;100783.38;5376613;26;19936;-89
2024/04/24 08:10:00;;;;;;;;;;;;;;;14.02;nan;100784.47;5385456;26;19945;-87
2024/04/24 08:12:25;;;;;;;;;;;;;;;14.02;nan;100779.06;5414952;26;19995;-87
2024/04/24 08:14:50;;;;;;;;;;;;;;;14.11;nan;100776.63;5391536;26;19930;-87
2024/04/24 08:17:15;;;;;;;;;;;;;;;14.25;nan;100772.31;5403379;26;19941;-88
2024/04/24 08:19:40;;;;;;;;;;;;;;;14.37;nan;100780.13;5408719;26;19936;-88
2024/04/24 08:22:05;;;;;;;;;;;;;;;14.41;nan;100778.50;5401098;26;19929;-88
2024/04/24 08:24:31;;;;;;;;;;;;;;;14.49;nan;100778.75;5399208;26;20277;-89
2024/04/24 08:26:56;;;;;;;;;;;;;;;14.64;nan;100782.50;5404760;26;19936;-88
2024/04/24 08:29:22;;;;;;;;;;;;;;;14.78;nan;100786.25;5402315;26;19929;-88
2024/04/24 08:31:47;;;;;;;;;;;;;;;14.83;nan;100772.72;5395681;26;19976;-89
2024/04/24 08:34:12;;;;;;;;;;;;;;;14.92;nan;100775.69;5406567;26;20291;-88
2024/04/24 08:36:37;;;;;;;;;;;;;;;15.03;nan;100777.22;5414978;26;19929;-87
2024/04/24 08:39:02;;;;;;;;;;;;;;;15.09;nan;100766.16;5409362;26;19968;-88
2024/04/24 08:41:28;;;;;;;;;;;;;;;15.20;nan;100776.88;5408008;26;19936;-88
2024/04/24 08:43:54;;;;;;;;;;;;;;;15.28;nan;100765.53;5396901;26;20339;-89
2024/04/24 08:46:19;;;;;;;;;;;;;;;15.37;nan;100771.94;5400041;26;20634;-89
2024/04/24 08:48:44;;;;;;;;;;;;;;;15.50;nan;100771.31;5407604;26;19937;-88
2024/04/24 08:51:11;;;;;;;;;;;;;;;15.58;nan;100768.00;5379973;26;20334;-88
2024/04/24 08:53:36;;;;;;;;;;;;;;;15.66;nan;100758.56;5394434;26;19961;-88
2024/04/24 08:56:06;;;;;;;;;;;;;;;15.79;nan;100766.00;5402909;26;19929;-88
2024/04/24 08:58:35;;;;;;;;;;;;;;;15.95;nan;100756.69;5408318;26;19936;-89
2024/04/24 09:01:03;;;;;;;;;;;;;;;16.07;nan;100763.63;5395382;26;19944;-88
2024/04/24 09:03:31;;;;;;;;;;;;;;;15.93;nan;100764.25;5399964;26;19935;-88
2024/04/24 09:05:58;;;;;;;;;;;;;;;15.81;nan;100754.94;5392454;26;19980;-89
2024/04/24 09:08:23;;;;;;;;;;;;;;;15.71;nan;100755.81;5411833;26;20372;-88
2024/04/24 09:10:48;;;;;;;;;;;;;;;15.77;nan;100745.75;5395490;26;19929;-89
2024/04/24 09:13:14;;;;;;;;;;;;;;;15.77;nan;100749.25;5410639;26;19936;-87
2024/04/24 09:15:40;;;;;;;;;;;;;;;15.78;nan;100742.78;5392835;26;19929;-87
2024/04/24 09:18:05;;;;;;;;;;;;;;;15.75;nan;100737.13;5391238;26;20628;-87
2024/04/24 09:20:32;;;;;;;;;;;;;;;15.78;nan;100739.25;5393209;26;20433;-87
2024/04/24 09:22:57;;;;;;;;;;;;;;;15.88;nan;100734.59;5386772;26;19941;-88
2024/04/24 09:25:22;;;;;;;;;;;;;;;16.06;nan;100737.69;5380964;26;20904;-88
2024/04/24 09:27:47;;;;;;;;;;;;;;;16.23;nan;100732.66;5395517;26;20269;-88
2024/04/24 09:30:13;;;;;;;;;;;;;;;16.44;nan;100739.44;5396679;26;19930;-88
2024/04/24 09:32:38;;;;;;;;;;;;;;;16.55;nan;100734.75;5397581;26;19934;-88
2024/04/24 09:35:03;;;;;;;;;;;;;;;16.71;nan;100730.00;5375216;26;20326;-88
2024/04/24 09:37:29;;;;;;;;;;;;;;;16.78;nan;100725.84;5394133;26;19999;-87
2024/04/24 09:39:54;;;;;;;;;;;;;;;16.85;nan;100733.59;5395958;26;20284;-87
2024/04/24 09:42:19;;;;;;;;;;;;;;;16.92;nan;100731.34;5398029;26;19980;-88
2024/04/24 09:44:45;;;;;;;;;;;;;;;16.95;nan;100727.25;5401335;26;19991;-88
2024/04/24 09:47:11;;;;;;;;;;;;;;;16.92;nan;100726.75;5400857;26;19998;-87
2024/04/24 09:49:37;;;;;;;;;;;;;;;17.05;nan;100730.63;5404365;26;19999;-86
2024/04/24 09:52:02;;;;;;;;;;;;;;;17.10;nan;100713.53;5406119;26;19941;-87
2024/04/24 09:54:27;;;;;;;;;;;;;;;17.17;nan;100709.34;5401336;26;19929;-87
2024/04/24 09:56:57;;;;;;;;;;;;;;;17.28;nan;100710.00;5390871;26;19930;-88
2024/04/24 09:59:27;;;;;;;;;;;;;;;17.33;nan;100706.41;5408193;26;19940;-87
2024/04/24 10:01:53;;;;;;;;;;;;;;;17.24;nan;100708.19;5385444;26;19937;-87
2024/04/24 10:04:19;;;;;;;;;;;;;;;17.07;nan;100704.09;5383892;26;19929;-87
2024/04/24 10:06:45;;;;;;;;;;;;;;;16.89;nan;100704.88;5390428;26;19938;-86
2024/04/24 10:09:12;;;;;;;;;;;;;;;16.72;nan;100704.56;5393429;26;19941;-88
2024/04/24 10:11:41;;;;;;;;;;;;;;;16.58;nan;100704.41;5389859;26;19930;-87
2024/04/24 10:14:08;;;;;;;;;;;;;;;16.51;nan;100704.75;5383680;26;19937;-88
2024/04/24 10:16:33;;;;;;;;;;;;;;;16.51;nan;100706.66;5405248;26;19937;-86
2024/04/24 10:18:59;;;;;;;;;;;;;;;16.50;nan;100697.72;5387071;26;19935;-88
2024/04/24 10:21:24;;;;;;;;;;;;;;;16.52;nan;100700.97;5363400;26;20385;-87
2024/04/24 10:23:51;;;;;;;;;;;;;;;16.50;nan;100697.72;5394716;26;19929;-88
2024/04/24 10:26:18;;;;;;;;;;;;;;;16.47;nan;100697.50;5394131;26;19936;-87
2024/04/24 10:28:44;;;;;;;;;;;;;;;16.32;nan;100704.69;5391779;26;20016;-87
2024/04/24 10:31:09;;;;;;;;;;;;;;;16.16;nan;100697.84;5408360;26;20412;-88
2024/04/24 10:33:35;;;;;;;;;;;;;;;15.99;nan;100690.19;5408286;26;19943;-87
2024/04/24 10:36:01;;;;;;;;;;;;;;;15.95;nan;100680.22;5393301;26;19965;-89
2024/04/24 10:38:30;;;;;;;;;;;;;;;15.93;nan;100683.19;5393792;26;19979;-87
2024/04/24 10:40:55;;;;;;;;;;;;;;;15.98;nan;100677.78;5397721;26;19929;-88
2024/04/24 10:43:22;;;;;;;;;;;;;;;16.05;nan;100671.22;5402098;26;20364;-87
2024/04/24 10:45:51;;;;;;;;;;;;;;;16.05;nan;100674.72;5401406;26;20265;-88
2024/04/24 10:48:16;;;;;;;;;;;;;;;16.06;nan;100680.94;5402780;26;20712;-88
2024/04/24 10:50:45;;;;;;;;;;;;;;;16.06;nan;100678.22;5394574;26;19933;-87
2024/04/24 10:53:16;;;;;;;;;;;;;;;16.06;nan;100676.34;5401871;26;19935;-87
2024/04/24 10:56:02;;;;;;;;;;;;;;;16.07;nan;100677.13;5374025;26;19929;-88
2024/04/24 10:58:27;;;;;;;;;;;;;;;16.10;nan;100671.97;5373348;26;19957;-88
2024/04/24 11:00:52;;;;;;;;;;;;;;;16.15;nan;100677.28;5403392;26;19937;-88
2024/04/24 11:03:18;;;;;;;;;;;;;;;16.08;nan;100674.16;5399946;26;19941;-87
2024/04/24 11:05:43;;;;;;;;;;;;;;;16.04;nan;100672.31;5401027;26;19941;-88
2024/04/24 11:08:14;;;;;;;;;;;;;;;16.04;nan;100661.50;5397881;26;19929;-88
2024/04/24 11:10:46;;;;;;;;;;;;;;;16.06;nan;100664.72;5405495;26;19929;-88
2024/04/24 11:13:13;;;;;;;;;;;;;;;16.10;nan;100665.75;5399765;26;19929;-88
2024/04/24 11:15:39;;;;;;;;;;;;;;;16.15;nan;100666.50;5402768;26;19929;-87
2024/04/24 11:18:04;;;;;;;;;;;;;;;16.21;nan;100669.97;5391940;26;19930;-88
2024/04/24 11:20:34;;;;;;;;;;;;;;;16.19;nan;100664.84;5402012;26;19928;-88
2024/04/24 11:23:05;;;;;;;;;;;;;;;16.15;nan;100679.19;5404540;26;19952;-86
2024/04/24 11:25:30;;;;;;;;;;;;;;;16.04;nan;100666.91;5396941;26;19935;-89
2024/04/24 11:27:57;;;;;;;;;;;;;;;15.88;nan;100668.94;5399347;26;19929;-87
2024/04/24 11:30:22;;;;;;;;;;;;;;;15.71;nan;100655.88;5398200;26;19933;-89
2024/04/24 11:32:49;;;;;;;;;;;;;;;15.64;nan;100660.81;5400543;26;19944;-89
2024/04/24 11:35:15;;;;;;;;;;;;;;;15.53;nan;100670.03;5399462;26;19940;-88
2024/04/24 11:37:41;;;;;;;;;;;;;;;15.42;nan;100662.00;5404148;26;19936;-88
2024/04/24 11:40:09;;;;;;;;;;;;;;;15.44;nan;100659.06;5395263;26;19941;-89
2024/04/24 11:42:34;;;;;;;;;;;;;;;15.57;nan;100658.38;5390032;26;20298;-88
2024/04/24 11:44:59;;;;;;;;;;;;;;;15.68;nan;100646.44;5391779;26;19945;-88
2024/04/24 11:47:25;;;;;;;;;;;;;;;15.81;nan;100646.88;5390466;26;20377;-88
2024/04/24 11:49:53;;;;;;;;;;;;;;;15.90;nan;100643.25;5400085;26;19944;-86
2024/04/24 11:52:19;;;;;;;;;;;;;;;15.92;nan;100654.56;5391135;26;19989;-88
2024/04/24 11:54:44;;;;;;;;;;;;;;;15.88;nan;100642.72;5390478;26;19937;-87
2024/04/24 11:57:10;;;;;;;;;;;;;;;15.94;nan;100646.19;5389826;26;20308;-87
2024/04/24 11:59:40;;;;;;;;;;;;;;;16.08;nan;100646.31;5388593;26;19929;-88
2024/04/24 12:02:05;;;;;;;;;;;;;;;16.20;nan;100638.63;5401287;26;19929;-88
2024/04/24 12:04:30;;;;;;;;;;;;;;;16.31;nan;100640.91;5401819;26;19939;-88
2024/04/24 12:06:55;;;;;;;;;;;;;;;16.42;nan;100635.38;5391677;26;19934;-87
2024/04/24 12:09:21;;;;;;;;;;;;;;;16.53;nan;100639.56;5394043;26;19930;-88
2024/04/24 12:11:46;;;;;;;;;;;;;;;16.59;nan;100639.22;5388959;26;19943;-87
2024/04/24 12:14:13;;;;;;;;;;;;;;;16.66;nan;100628.03;5400973;26;19940;-88
2024/04/24 12:16:39;;;;;;;;;;;;;;;16.65;nan;100636.44;5390465;26;20002;-87
2024/04/24 12:19:04;;;;;;;;;;;;;;;16.73;nan;100628.50;5373394;26;20335;-87
2024/04/24 12:21:29;;;;;;;;;;;;;;;16.77;nan;100631.44;5393255;26;19942;-87
2024/04/24 12:23:54;;;;;;;;;;;;;;;16.78;nan;100627.63;5392162;26;19929;-87
2024/04/24 12:26:19;;;;;;;;;;;;;;;16.77;nan;100636.84;5402120;26;19936;-87
2024/04/24 12:28:45;;;;;;;;;;;;;;;16.63;nan;100626.72;5400210;26;19935;-88
2024/04/24 12:31:10;;;;;;;;;;;;;;;16.67;nan;100629.66;5394192;26;20389;-87
2024/04/24 12:33:36;;;;;;;;;;;;;;;16.76;nan;100632.53;5392080;26;19928;-88
2024/04/24 12:36:02;;;;;;;;;;;;;;;16.83;nan;100635.66;5397817;26;20413;-86
2024/04/24 12:38:27;;;;;;;;;;;;;;;16.86;nan;100635.06;5394987;26;19929;-87
2024/04/24 12:40:52;;;;;;;;;;;;;;;16.87;nan;100625.84;5389685;26;20730;-87
2024/04/24 12:43:18;;;;;;;;;;;;;;;16.98;nan;100627.34;5385954;26;20375;-88
2024/04/24 12:45:43;;;;;;;;;;;;;;;17.05;nan;100627.75;5393681;26;19964;-86
2024/04/24 12:48:08;;;;;;;;;;;;;;;17.12;nan;100611.16;5395363;26;19999;-87
2024/04/24 12:50:34;;;;;;;;;;;;;;;17.14;nan;100620.59;5403480;26;19942;-87
2024/04/24 12:52:59;;;;;;;;;;;;;;;17.14;nan;100626.00;5395294;26;20423;-87
2024/04/24 12:55:24;;;;;;;;;;;;;;;17.02;nan;100614.81;5394977;26;19936;-88
2024/04/24 12:57:49;;;;;;;;;;;;;;;17.06;nan;100617.75;5401075;26;19929;-87